createdAt,value
2023-05-02T00:02:06.161Z,9.40
2023-05-02T00:04:35.266Z,8.90
2023-05-02T00:07:03.144Z,11.50
2023-05-02T00:09:31.159Z,10.30
2023-05-02T00:11:58.754Z,12.03
2023-05-02T00:14:26.668Z,12.60
2023-05-02T00:16:54.286Z,11.77
2023-05-02T00:19:21.991Z,12.97
2023-05-02T00:21:51.087Z,14.63
2023-05-02T00:24:19.058Z,13.10
2023-05-02T00:26:46.765Z,12.77
2023-05-02T00:29:14.416Z,15.00
2023-05-02T00:31:42.214Z,13.33
2023-05-02T00:34:09.908Z,13.17
2023-05-02T00:36:37.512Z,13.03
2023-05-02T00:39:06.896Z,18.07
2023-05-02T00:41:34.565Z,15.87
2023-05-02T00:44:02.209Z,19.80
2023-05-02T00:46:30.596Z,19.70
2023-05-02T00:48:58.284Z,18.70
2023-05-02T00:51:26.175Z,24.00
2023-05-02T00:53:53.903Z,16.77
2023-05-02T00:56:22.830Z,14.60
2023-05-02T00:58:50.692Z,18.13
2023-05-02T01:01:34.038Z,16.40
2023-05-02T01:04:11.622Z,24.47
2023-05-02T01:06:54.569Z,20.77
2023-05-02T01:09:31.991Z,21.67
2023-05-02T01:12:04.340Z,30.23
2023-05-02T01:14:36.134Z,16.17
2023-05-02T01:17:08.209Z,19.30
2023-05-02T01:19:39.561Z,19.50
2023-05-02T01:22:09.709Z,18.43
2023-05-02T01:24:43.807Z,21.53
2023-05-02T01:27:25.801Z,18.40
2023-05-02T01:29:57.976Z,21.83
2023-05-02T01:32:27.341Z,18.57
2023-05-02T01:34:57.224Z,23.60
2023-05-02T01:37:26.061Z,21.97
2023-05-02T01:39:55.178Z,21.80
2023-05-02T01:42:24.720Z,18.17
2023-05-02T01:44:57.389Z,24.43
2023-05-02T01:47:26.672Z,17.97
2023-05-02T01:49:54.439Z,25.73
2023-05-02T01:52:23.861Z,20.40
2023-05-02T01:54:53.002Z,17.33
2023-05-02T01:57:21.041Z,14.67
2023-05-02T01:59:50.762Z,18.60
2023-05-02T02:02:20.737Z,30.43
2023-05-02T02:04:49.755Z,18.60
2023-05-02T02:07:17.552Z,21.47
2023-05-02T02:09:45.217Z,21.10
2023-05-02T02:12:16.839Z,14.43
2023-05-02T02:14:50.980Z,12.33
2023-05-02T02:17:27.969Z,22.13
2023-05-02T02:19:57.982Z,14.17
2023-05-02T02:22:29.243Z,16.50
2023-05-02T02:24:58.390Z,12.60
2023-05-02T02:27:26.196Z,13.03
2023-05-02T02:29:53.871Z,16.87
2023-05-02T02:32:22.877Z,12.67
2023-05-02T02:34:50.521Z,15.90
2023-05-02T02:37:21.086Z,16.10
2023-05-02T02:39:57.042Z,12.23
2023-05-02T02:42:36.125Z,14.93
2023-05-02T02:45:10.344Z,14.27
2023-05-02T02:47:45.116Z,10.60
2023-05-02T02:50:24.241Z,15.37
2023-05-02T02:52:56.512Z,17.93
2023-05-02T02:55:41.630Z,12.27
2023-05-02T02:58:21.082Z,19.40
2023-05-02T03:00:50.410Z,14.93
2023-05-02T03:03:21.470Z,17.10
2023-05-02T03:05:50.110Z,16.83
2023-05-02T03:08:17.812Z,17.60
2023-05-02T03:10:45.517Z,13.70
2023-05-02T03:13:13.124Z,12.10
2023-05-02T03:16:19.671Z,11.00
2023-05-02T03:18:48.649Z,18.63
2023-05-02T03:21:16.327Z,18.90
2023-05-02T03:23:43.891Z,10.47
2023-05-02T03:26:11.898Z,10.07
2023-05-02T03:28:39.655Z,11.83
2023-05-02T03:31:07.290Z,10.77
2023-05-02T03:33:34.933Z,17.53
2023-05-02T03:36:04.005Z,13.80
2023-05-02T03:38:31.849Z,13.43
2023-05-02T03:40:59.506Z,10.80
2023-05-02T03:43:27.066Z,12.17
2023-05-02T03:45:54.682Z,12.70
2023-05-02T03:48:22.441Z,11.97
2023-05-02T03:50:51.562Z,12.77
2023-05-02T03:53:20.594Z,12.40
2023-05-02T03:55:48.181Z,17.77
2023-05-02T03:58:16.071Z,15.00
2023-05-02T04:00:43.689Z,9.87
2023-05-02T04:03:11.709Z,10.07
2023-05-02T04:05:39.364Z,13.47
2023-05-02T04:08:07.236Z,13.80
2023-05-02T04:10:36.268Z,19.00
2023-05-02T04:13:04.452Z,17.90
2023-05-02T04:15:32.422Z,13.00
2023-05-02T04:18:00.301Z,11.77
2023-05-02T04:20:28.132Z,14.63
2023-05-02T04:22:55.717Z,11.93
2023-05-02T04:25:23.343Z,9.10
2023-05-02T04:27:52.256Z,11.43
2023-05-02T04:30:20.511Z,10.37
2023-05-02T04:32:48.130Z,9.17
2023-05-02T04:35:16.758Z,12.53
2023-05-02T04:37:44.787Z,13.20
2023-05-02T04:40:13.567Z,14.03
2023-05-02T04:42:41.190Z,8.87
2023-05-02T04:45:10.708Z,8.70
2023-05-02T04:47:38.332Z,8.70
2023-05-02T04:50:07.186Z,8.50
2023-05-02T04:52:34.764Z,10.03
2023-05-02T04:55:02.441Z,7.50
2023-05-02T04:57:30.044Z,11.20
2023-05-02T04:59:57.724Z,8.00
2023-05-02T05:02:27.096Z,7.13
2023-05-02T05:04:54.904Z,9.30
2023-05-02T05:07:22.557Z,7.30
2023-05-02T05:09:51.296Z,7.77
2023-05-02T05:12:20.859Z,12.90
2023-05-02T05:14:49.853Z,11.03
2023-05-02T05:17:18.156Z,8.00
2023-05-02T05:19:47.168Z,9.80
2023-05-02T05:22:15.459Z,13.33
2023-05-02T05:24:43.088Z,6.60
2023-05-02T05:27:11.249Z,9.57
2023-05-02T05:29:38.865Z,8.57
2023-05-02T05:32:06.969Z,8.57
2023-05-02T05:34:34.655Z,6.00
2023-05-02T05:37:03.720Z,8.37
2023-05-02T05:39:31.488Z,7.80
2023-05-02T05:42:00.665Z,8.50
2023-05-02T05:44:28.249Z,7.20
2023-05-02T05:46:56.111Z,6.20
2023-05-02T05:49:24.276Z,9.53
2023-05-02T05:51:52.145Z,8.40
2023-05-02T05:54:21.167Z,7.63
2023-05-02T05:56:48.974Z,13.63
2023-05-02T05:59:16.684Z,10.40
2023-05-02T06:01:44.332Z,10.83
2023-05-02T06:04:12.181Z,11.07
2023-05-02T06:06:39.950Z,7.40
2023-05-02T06:09:07.577Z,11.73
2023-05-02T06:11:37.865Z,5.77
2023-05-02T06:14:05.543Z,5.60
2023-05-02T06:16:33.241Z,7.87
2023-05-02T06:19:00.857Z,10.33
2023-05-02T06:21:28.611Z,5.73
2023-05-02T06:23:56.219Z,6.57
2023-05-02T06:26:24.072Z,6.50
2023-05-02T06:28:53.046Z,10.60
2023-05-02T06:31:20.803Z,12.23
2023-05-02T06:33:48.600Z,7.93
2023-05-02T06:36:16.186Z,5.83
2023-05-02T06:38:43.809Z,5.20
2023-05-02T06:41:17.224Z,11.03
2023-05-02T06:43:45.763Z,9.03
2023-05-02T06:46:15.302Z,12.53
2023-05-02T06:48:42.939Z,5.93
2023-05-02T06:51:10.944Z,11.37
2023-05-02T06:53:38.573Z,12.73
2023-05-02T06:56:07.055Z,6.50
2023-05-02T06:58:34.663Z,5.50
2023-05-02T07:01:02.322Z,5.40
2023-05-02T07:03:31.278Z,5.33
2023-05-02T07:05:59.052Z,5.63
2023-05-02T07:08:26.687Z,7.93
2023-05-02T07:10:54.295Z,5.53
2023-05-02T07:13:21.924Z,7.77
2023-05-02T07:15:49.556Z,5.10
2023-05-02T07:18:18.266Z,5.30
2023-05-02T07:20:47.462Z,5.10
2023-05-02T07:23:15.096Z,6.73
2023-05-02T07:25:43.060Z,5.77
2023-05-02T07:28:11.038Z,9.97
2023-05-02T07:30:38.729Z,7.47
2023-05-02T07:33:06.378Z,7.40
2023-05-02T07:35:34.065Z,5.83
2023-05-02T07:38:02.981Z,4.90
2023-05-02T07:40:30.655Z,4.60
2023-05-02T07:43:02.049Z,4.90
2023-05-02T07:45:29.977Z,4.97
2023-05-02T07:47:57.594Z,5.20
2023-05-02T07:50:25.903Z,6.97
2023-05-02T07:52:53.701Z,5.80
2023-05-02T07:55:23.131Z,7.10
2023-05-02T07:57:50.806Z,7.97
2023-05-02T08:00:19.217Z,7.00
2023-05-02T08:02:47.086Z,5.83
2023-05-02T08:05:15.048Z,6.00
2023-05-02T08:07:42.773Z,7.30
2023-05-02T08:10:11.561Z,5.33
2023-05-02T08:12:41.228Z,10.10
2023-05-02T08:15:11.313Z,7.13
2023-05-02T08:17:39.118Z,8.60
2023-05-02T08:20:07.953Z,5.10
2023-05-02T08:22:35.616Z,5.93
2023-05-02T08:25:03.226Z,6.30
2023-05-02T08:27:30.832Z,7.00
2023-05-02T08:30:01.059Z,6.13
2023-05-02T08:32:29.998Z,9.20
2023-05-02T08:34:57.880Z,8.60
2023-05-02T08:37:26.117Z,8.47
2023-05-02T08:39:53.739Z,9.63
2023-05-02T08:42:21.603Z,8.47
2023-05-02T08:44:50.138Z,5.30
2023-05-02T08:47:21.524Z,7.60
2023-05-02T08:49:51.055Z,11.27
2023-05-02T08:52:21.331Z,7.20
2023-05-02T08:54:51.503Z,10.37
2023-05-02T08:57:19.095Z,10.27
2023-05-02T08:59:46.690Z,11.43
2023-05-02T09:02:24.965Z,11.60
2023-05-02T09:04:56.181Z,5.43
2023-05-02T09:07:23.873Z,4.93
2023-05-02T09:09:51.493Z,8.93
2023-05-02T09:12:26.437Z,8.50
2023-05-02T09:15:12.706Z,7.30
2023-05-02T09:17:43.500Z,5.23
2023-05-02T09:20:12.587Z,10.20
2023-05-02T09:22:40.500Z,6.20
2023-05-02T09:25:09.123Z,9.10
2023-05-02T09:27:54.284Z,6.90
2023-05-02T09:30:24.064Z,7.33
2023-05-02T09:32:55.478Z,9.53
2023-05-02T09:35:26.886Z,9.67
2023-05-02T09:37:55.724Z,5.13
2023-05-02T09:40:24.395Z,5.30
2023-05-02T09:42:52.467Z,6.73
2023-05-02T09:45:24.158Z,5.30
2023-05-02T09:47:54.308Z,7.30
2023-05-02T09:50:34.916Z,6.30
2023-05-02T09:53:04.336Z,7.40
2023-05-02T09:55:32.278Z,8.13
2023-05-02T09:58:00.819Z,6.83
2023-05-02T10:00:42.333Z,4.53
2023-05-02T10:03:11.965Z,5.43
2023-05-02T10:05:41.163Z,7.40
2023-05-02T10:08:10.305Z,6.50
2023-05-02T10:10:39.662Z,9.97
2023-05-02T10:13:09.176Z,6.87
2023-05-02T10:15:43.582Z,4.87
2023-05-02T10:18:16.669Z,8.53
2023-05-02T10:20:48.580Z,6.03
2023-05-02T10:23:18.472Z,5.17
2023-05-02T10:25:46.967Z,8.73
2023-05-02T10:28:15.728Z,7.03
2023-05-02T10:30:44.400Z,5.17
2023-05-02T10:33:17.190Z,4.87
2023-05-02T10:35:46.846Z,14.07
2023-05-02T10:38:18.047Z,11.27
2023-05-02T10:40:55.723Z,7.47
2023-05-02T10:43:26.167Z,8.30
2023-05-02T10:45:55.148Z,8.37
2023-05-02T10:48:26.630Z,7.47
2023-05-02T10:50:55.951Z,7.00
2023-05-02T10:53:25.946Z,10.30
2023-05-02T10:56:13.950Z,7.37
2023-05-02T10:58:42.374Z,6.63
2023-05-02T11:01:42.127Z,5.70
2023-05-02T11:04:11.850Z,9.90
2023-05-02T11:07:13.077Z,6.03
2023-05-02T11:09:40.948Z,5.00
2023-05-02T11:12:08.662Z,9.60
2023-05-02T11:14:48.510Z,7.53
2023-05-02T11:17:16.754Z,8.27
2023-05-02T11:20:30.102Z,4.77
2023-05-02T11:23:00.889Z,4.80
2023-05-02T11:25:36.877Z,6.47
2023-05-02T11:28:07.494Z,5.70
2023-05-02T11:30:40.222Z,4.57
2023-05-02T11:33:19.833Z,9.57
2023-05-02T11:35:49.108Z,7.30
2023-05-02T11:38:21.591Z,6.17
2023-05-02T11:40:57.731Z,5.93
2023-05-02T11:43:28.713Z,7.90
2023-05-02T11:45:59.848Z,7.60
2023-05-02T11:48:28.507Z,3.93
2023-05-02T11:50:58.375Z,6.07
2023-05-02T11:53:29.730Z,11.70
2023-05-02T11:55:59.279Z,12.00
2023-05-02T11:58:29.686Z,8.83
2023-05-02T12:00:58.027Z,5.10
2023-05-02T12:03:30.283Z,5.90
2023-05-02T12:05:59.298Z,6.10
2023-05-02T12:08:29.888Z,10.27
2023-05-02T12:10:58.136Z,4.67
2023-05-02T12:13:27.508Z,6.80
2023-05-02T12:15:56.174Z,6.00
2023-05-02T12:18:26.998Z,5.93
2023-05-02T12:20:56.122Z,5.23
2023-05-02T12:23:27.230Z,7.40
2023-05-02T12:25:56.260Z,11.10
2023-05-02T12:28:24.340Z,5.13
2023-05-02T12:30:52.982Z,6.27
2023-05-02T12:33:20.798Z,5.93
2023-05-02T12:35:48.988Z,6.30
2023-05-02T12:38:18.257Z,9.30
2023-05-02T12:40:50.588Z,5.07
2023-05-02T12:43:20.293Z,9.13
2023-05-02T12:45:49.671Z,6.97
2023-05-02T12:48:25.002Z,5.00
2023-05-02T12:50:53.969Z,4.63
2023-05-02T12:53:41.665Z,4.60
2023-05-02T12:56:10.302Z,4.90
2023-05-02T12:58:47.504Z,4.00
2023-05-02T13:01:16.062Z,3.90
2023-05-02T13:03:44.495Z,3.53
2023-05-02T13:06:12.285Z,4.83
2023-05-02T13:08:40.115Z,6.17
2023-05-02T13:11:07.803Z,6.20
2023-05-02T13:13:35.621Z,4.57
2023-05-02T13:16:05.031Z,6.53
2023-05-02T13:18:32.883Z,7.07
2023-05-02T13:21:00.495Z,5.60
2023-05-02T13:23:28.060Z,4.93
2023-05-02T13:25:55.736Z,7.87
2023-05-02T13:28:23.490Z,5.90
2023-05-02T13:30:51.188Z,4.10
2023-05-02T13:33:20.217Z,6.17
2023-05-02T13:35:47.898Z,10.37
2023-05-02T13:38:15.653Z,6.80
2023-05-02T13:40:43.294Z,4.80
2023-05-02T13:43:10.981Z,4.30
2023-05-02T13:45:38.633Z,6.47
2023-05-02T13:48:07.085Z,5.43
2023-05-02T13:50:37.300Z,4.20
2023-05-02T13:53:04.988Z,5.60
2023-05-02T13:55:32.671Z,4.00
2023-05-02T13:58:00.235Z,7.17
2023-05-02T14:00:29.117Z,4.40
2023-05-02T14:02:56.909Z,5.40
2023-05-02T14:05:24.663Z,5.27
2023-05-02T14:07:53.650Z,7.70
2023-05-02T14:10:21.261Z,3.83
2023-05-02T14:12:49.202Z,7.80
2023-05-02T14:15:17.111Z,6.17
2023-05-02T14:17:44.838Z,5.53
2023-05-02T14:20:13.102Z,7.13
2023-05-02T14:22:40.858Z,4.73
2023-05-02T14:25:10.528Z,5.80
2023-05-02T14:27:38.153Z,4.57
2023-05-02T14:30:07.293Z,7.00
2023-05-02T14:32:35.036Z,4.57
2023-05-02T14:35:02.850Z,4.10
2023-05-02T14:37:31.078Z,11.00
2023-05-02T14:39:59.287Z,4.27
2023-05-02T14:42:28.527Z,4.63
2023-05-02T14:44:58.930Z,4.30
2023-05-02T14:47:30.832Z,4.70
2023-05-02T14:49:58.781Z,7.33
2023-05-02T14:52:26.898Z,5.00
2023-05-02T14:54:54.641Z,5.57
2023-05-02T14:57:22.542Z,3.97
2023-05-02T14:59:51.497Z,4.90
2023-05-02T15:02:19.156Z,6.27
2023-05-02T15:04:46.845Z,5.30
2023-05-02T15:07:14.911Z,5.50
2023-05-02T15:09:42.783Z,5.83
2023-05-02T15:12:10.860Z,3.80
2023-05-02T15:14:38.468Z,5.00
2023-05-02T15:17:07.851Z,4.63
2023-05-02T15:19:35.495Z,5.63
2023-05-02T15:22:03.125Z,6.07
2023-05-02T15:24:30.829Z,6.70
2023-05-02T15:26:58.644Z,4.13
2023-05-02T15:29:26.366Z,4.33
2023-05-02T15:31:55.674Z,7.93
2023-05-02T15:34:24.698Z,11.57
2023-05-02T15:36:52.382Z,5.60
2023-05-02T15:39:20.024Z,6.30
2023-05-02T15:41:47.825Z,3.77
2023-05-02T15:44:15.479Z,4.23
2023-05-02T15:46:46.713Z,5.57
2023-05-02T15:49:14.978Z,4.80
2023-05-02T15:51:43.908Z,4.70
2023-05-02T15:54:11.483Z,9.53
2023-05-02T15:56:39.473Z,3.40
2023-05-02T15:59:07.060Z,5.17
2023-05-02T16:01:34.639Z,3.50
2023-05-02T16:04:02.325Z,4.30
2023-05-02T16:06:30.526Z,6.37
2023-05-02T16:09:01.042Z,5.23
2023-05-02T16:11:29.795Z,4.60
2023-05-02T16:13:57.478Z,5.13
2023-05-02T16:16:25.239Z,3.83
2023-05-02T16:18:52.856Z,3.77
2023-05-02T16:21:20.596Z,5.13
2023-05-02T16:23:48.681Z,4.20
2023-05-02T16:26:17.717Z,6.30
2023-05-02T16:28:45.353Z,6.00
2023-05-02T16:31:14.863Z,5.23
2023-05-02T16:33:42.916Z,6.37
2023-05-02T16:36:11.015Z,4.50
2023-05-02T16:38:38.604Z,6.30
2023-05-02T16:41:07.012Z,5.80
2023-05-02T16:43:37.503Z,3.90
2023-05-02T16:46:07.459Z,5.60
2023-05-02T16:48:35.771Z,4.30
2023-05-02T16:51:04.428Z,7.63
2023-05-02T16:53:32.586Z,6.17
2023-05-02T16:56:00.369Z,7.80
2023-05-02T16:58:29.290Z,4.03
2023-05-02T17:01:00.023Z,3.97
2023-05-02T17:03:27.792Z,5.23
2023-05-02T17:05:58.798Z,17.77
2023-05-02T17:08:26.369Z,6.60
2023-05-02T17:10:53.973Z,5.83
2023-05-02T17:13:21.536Z,4.97
2023-05-02T17:15:49.765Z,5.27
2023-05-02T17:18:18.728Z,5.27
2023-05-02T17:20:47.651Z,7.60
2023-05-02T17:23:15.997Z,8.10
2023-05-02T17:25:43.704Z,7.60
2023-05-02T17:28:11.428Z,7.23
2023-05-02T17:30:39.056Z,5.43
2023-05-02T17:33:06.936Z,5.83
2023-05-02T17:35:35.929Z,4.63
2023-05-02T17:38:03.575Z,3.70
2023-05-02T17:40:31.241Z,4.70
2023-05-02T17:42:59.309Z,5.13
2023-05-02T17:45:28.866Z,3.77
2023-05-02T17:47:56.566Z,6.20
2023-05-02T17:50:24.351Z,11.47
2023-05-02T17:52:53.335Z,4.10
2023-05-02T17:55:21.090Z,4.20
2023-05-02T17:57:49.278Z,4.50
2023-05-02T18:00:18.740Z,4.03
2023-05-02T18:02:46.419Z,6.80
2023-05-02T18:05:14.821Z,6.37
2023-05-02T18:07:42.468Z,11.10
2023-05-02T18:10:11.511Z,4.50
2023-05-02T18:12:39.122Z,4.43
2023-05-02T18:15:09.008Z,9.20
2023-05-02T18:17:37.972Z,7.67
2023-05-02T18:20:07.049Z,5.10
2023-05-02T18:22:34.760Z,4.70
2023-05-02T18:25:02.731Z,4.80
2023-05-02T18:27:31.984Z,6.23
2023-05-02T18:29:59.750Z,6.13
2023-05-02T18:32:27.391Z,8.60
2023-05-02T18:34:55.035Z,4.63
2023-05-02T18:37:30.817Z,5.00
2023-05-02T18:39:58.661Z,5.50
2023-05-02T18:42:26.322Z,4.30
2023-05-02T18:44:55.285Z,4.80
2023-05-02T18:47:24.477Z,4.40
2023-05-02T18:49:52.164Z,5.23
2023-05-02T18:52:19.793Z,5.83
2023-05-02T18:54:47.514Z,9.60
2023-05-02T18:57:15.196Z,6.00
2023-05-02T18:59:42.806Z,7.97
2023-05-02T19:02:11.749Z,4.43
2023-05-02T19:04:39.355Z,7.60
2023-05-02T19:07:07.119Z,5.30
2023-05-02T19:09:34.711Z,5.67
2023-05-02T19:12:02.296Z,6.17
2023-05-02T19:14:30.617Z,4.80
2023-05-02T19:16:58.219Z,4.97
2023-05-02T19:19:27.201Z,5.53
2023-05-02T19:21:54.871Z,12.13
2023-05-02T19:24:22.505Z,5.97
2023-05-02T19:26:50.193Z,6.50
2023-05-02T19:29:17.820Z,10.50
2023-05-02T19:31:46.333Z,5.40
2023-05-02T19:34:14.109Z,9.90
2023-05-02T19:36:43.436Z,5.50
2023-05-02T19:39:13.061Z,6.13
2023-05-02T19:41:42.445Z,10.13
2023-05-02T19:44:10.120Z,9.03
2023-05-02T19:46:37.760Z,5.23
2023-05-02T19:49:05.527Z,9.10
2023-05-02T19:51:35.171Z,6.60
2023-05-02T19:54:04.188Z,16.70
2023-05-02T19:56:32.151Z,8.33
2023-05-02T19:59:01.134Z,11.30
2023-05-02T20:01:29.508Z,5.87
2023-05-02T20:03:57.207Z,6.10
2023-05-02T20:06:25.538Z,6.40
2023-05-02T20:08:53.226Z,5.70
2023-05-02T20:11:22.526Z,5.20
2023-05-02T20:13:50.180Z,6.60
2023-05-02T20:16:18.064Z,10.93
2023-05-02T20:18:45.692Z,10.27
2023-05-02T20:21:13.382Z,6.00
2023-05-02T20:23:43.223Z,5.57
2023-05-02T20:26:10.884Z,7.77
2023-05-02T20:28:39.872Z,8.10
2023-05-02T20:31:07.955Z,6.53
2023-05-02T20:33:44.551Z,7.03
2023-05-02T20:36:14.793Z,8.20
2023-05-02T20:38:44.501Z,6.23
2023-05-02T20:41:13.875Z,7.40
2023-05-02T20:43:44.983Z,5.67
2023-05-02T20:46:16.370Z,6.10
2023-05-02T20:48:44.149Z,5.53
2023-05-02T20:51:12.093Z,10.50
2023-05-02T20:53:40.342Z,7.07
2023-05-02T20:56:08.259Z,7.60
2023-05-02T20:58:35.816Z,9.00
2023-05-02T21:01:04.888Z,7.07
2023-05-02T21:03:36.410Z,6.00
2023-05-02T21:06:04.208Z,5.47
2023-05-02T21:08:31.866Z,6.63
2023-05-02T21:10:59.819Z,5.03
2023-05-02T21:13:27.382Z,9.03
2023-05-02T21:15:55.034Z,6.30
2023-05-02T21:18:24.060Z,7.43
2023-05-02T21:20:51.816Z,6.17
2023-05-02T21:23:19.445Z,6.40
2023-05-02T21:25:47.045Z,6.70
2023-05-02T21:28:14.628Z,9.80
2023-05-02T21:30:42.257Z,6.73
2023-05-02T21:33:10.398Z,6.90
2023-05-02T21:35:39.395Z,8.57
2023-05-02T21:38:07.586Z,7.60
2023-05-02T21:40:37.255Z,9.70
2023-05-02T21:43:04.974Z,8.60
2023-05-02T21:45:32.761Z,7.70
2023-05-02T21:48:01.308Z,8.73
2023-05-02T21:50:29.360Z,7.13
2023-05-02T21:52:58.356Z,8.17
2023-05-02T21:55:25.907Z,9.27
2023-05-02T21:57:53.472Z,7.60
2023-05-02T22:00:21.681Z,7.20
2023-05-02T22:02:49.447Z,8.53
2023-05-02T22:05:17.318Z,6.37
2023-05-02T22:07:44.922Z,7.70
2023-05-02T22:10:13.979Z,9.80
2023-05-02T22:12:41.938Z,7.43
2023-05-02T22:15:10.936Z,7.20
2023-05-02T22:17:42.438Z,7.00
2023-05-02T22:20:12.959Z,7.03
2023-05-02T22:22:41.319Z,6.70
2023-05-02T22:25:09.715Z,12.43
2023-05-02T22:27:38.679Z,6.63
2023-05-02T22:30:08.028Z,11.33
2023-05-02T22:32:36.007Z,7.67
2023-05-02T22:35:04.344Z,7.07
2023-05-02T22:37:31.940Z,8.40
2023-05-02T22:39:59.923Z,7.70
2023-05-02T22:42:27.764Z,8.27
2023-05-02T22:44:56.923Z,7.17
2023-05-02T22:47:25.106Z,8.47
2023-05-02T22:49:54.326Z,6.97
2023-05-02T22:52:22.503Z,13.20
2023-05-02T22:54:50.084Z,7.80
2023-05-02T22:57:17.698Z,12.77
2023-05-02T22:59:45.337Z,9.53
2023-05-02T23:02:14.389Z,7.53
2023-05-02T23:04:42.120Z,9.73
2023-05-02T23:07:09.724Z,8.83
2023-05-02T23:09:37.593Z,7.97
2023-05-02T23:12:05.986Z,8.77
2023-05-02T23:14:33.758Z,9.50
2023-05-02T23:17:03.057Z,7.43
2023-05-02T23:19:32.191Z,9.50
2023-05-02T23:21:59.902Z,7.37
2023-05-02T23:24:27.677Z,7.10
2023-05-02T23:26:55.448Z,8.20
2023-05-02T23:29:23.223Z,8.17
2023-05-02T23:31:52.424Z,13.23
2023-05-02T23:34:21.390Z,8.40
2023-05-02T23:36:52.312Z,11.13
2023-05-02T23:39:19.998Z,6.83
2023-05-02T23:41:47.691Z,8.03
2023-05-02T23:44:15.392Z,9.43
2023-05-02T23:46:43.018Z,8.73
2023-05-02T23:49:10.632Z,10.30
2023-05-02T23:51:38.645Z,7.37
2023-05-02T23:54:08.266Z,9.50
2023-05-02T23:56:35.887Z,8.63
2023-05-02T23:59:03.548Z,8.57
